Time;durP1;ratioP1;P1;durP2;ratioP2;P2;SDS_P1;SDS_P2;PMS_P1;PMS_P2;Temp;Humidity;BMP_temperature;BMP_pressure;BME280_temperature;BME280_humidity;BME280_pressure;Samples;Min_cycle;Max_cycle;Signal;HPM_P1;HPM_P2
2022/12/17 13:08:07;;;;;;;64.43;25.38;;;;;;;-1.65;100.00;102418.50;5114176;28;19912;-79
2022/12/17 13:14:04;;;;;;;67.90;27.13;;;;;;;-1.74;100.00;102424.28;5114689;28;20047;-79
2022/12/17 13:16:48;;;;;;;63.10;26.15;;;;;;;-1.90;100.00;102439.28;5096996;28;20435;-77
2022/12/17 13:26:29;;;;;;;77.35;30.30;;;;;;;-2.29;100.00;102435.53;5118059;28;20122;-79
2022/12/17 13:28:54;;;;;;;70.75;30.95;;;;;;;-2.37;100.00;102429.88;5095099;28;20089;-80
2022/12/17 13:34:53;;;;;;;70.22;26.13;;;;;;;-2.33;100.00;102426.16;5114074;28;20364;-79
2022/12/17 13:41:08;;;;;;;74.88;28.40;;;;;;;-2.39;100.00;102421.28;5116858;27;20067;-79
2022/12/17 13:46:55;;;;;;;74.55;27.90;;;;;;;-2.49;100.00;102422.78;5111325;28;20038;-79
2022/12/17 13:52:41;;;;;;;63.25;25.27;;;;;;;-2.36;100.00;102418.47;5112971;28;20097;-78
2022/12/17 13:58:31;;;;;;;81.10;34.45;;;;;;;-2.39;100.00;102426.53;5117514;27;20174;-78
2022/12/17 14:04:24;;;;;;;68.85;27.50;;;;;;;-2.44;100.00;102418.09;5113096;28;20042;-79
2022/12/17 14:13:33;;;;;;;74.07;27.63;;;;;;;-2.38;100.00;102427.38;5113234;28;20074;-77
2022/12/17 14:19:21;;;;;;;85.20;33.70;;;;;;;-2.64;100.00;102427.13;5113432;28;20073;-76
2022/12/17 14:21:46;;;;;;;71.50;25.75;;;;;;;-2.78;100.00;102429.69;5116023;28;20042;-77
2022/12/17 14:24:13;;;;;;;66.13;24.80;;;;;;;-2.70;100.00;102421.41;5112687;28;20106;-76
2022/12/17 14:30:03;;;;;;;70.80;28.83;;;;;;;-2.70;100.00;102437.09;5113194;28;20117;-75
2022/12/17 14:35:51;;;;;;;64.75;25.25;;;;;;;-2.85;100.00;102437.06;5112810;28;20042;-75
2022/12/17 14:47:56;;;;;;;69.97;24.45;;;;;;;-2.89;100.00;102440.81;5110965;28;20546;-76
2022/12/17 14:53:43;;;;;;;69.20;25.85;;;;;;;-2.96;100.00;102442.06;5112399;28;20085;-74
2022/12/17 14:59:35;;;;;;;73.78;29.08;;;;;;;-2.91;100.00;102442.63;5114135;28;20054;-79
2022/12/17 15:05:22;;;;;;;70.60;25.17;;;;;;;-2.99;100.00;102447.47;5112898;28;20053;-81
2022/12/17 15:11:16;;;;;;;76.55;32.78;;;;;;;-3.08;100.00;102476.75;5116586;28;20127;-77
2022/12/17 15:17:02;;;;;;;55.97;20.85;;;;;;;-3.31;100.00;102477.19;5114358;28;20498;-78
2022/12/17 15:22:50;;;;;;;77.60;25.45;;;;;;;-3.46;100.00;102482.34;5116050;28;20088;-79
2022/12/17 15:28:37;;;;;;;81.60;29.00;;;;;;;-3.35;100.00;102493.97;5119361;28;20082;-78
2022/12/17 15:34:24;;;;;;;78.40;28.45;;;;;;;-3.28;100.00;102492.69;5115910;28;20046;-78
2022/12/17 15:43:36;;;;;;;74.95;28.38;;;;;;;-3.26;100.00;102498.69;5115441;28;20031;-78
2022/12/17 15:49:23;;;;;;;65.20;23.92;;;;;;;-3.29;100.00;102497.09;5115887;28;20124;-79
2022/12/17 15:55:14;;;;;;;84.78;27.92;;;;;;;-3.24;100.00;102509.91;5113799;28;20155;-78
2022/12/17 16:01:04;;;;;;;80.38;26.50;;;;;;;-3.28;100.00;102504.00;5116068;28;20498;-79
2022/12/17 16:06:51;;;;;;;78.82;28.40;;;;;;;-3.29;100.00;102520.63;5118736;27;20465;-76
2022/12/17 16:12:39;;;;;;;102.57;36.63;;;;;;;-3.39;100.00;102526.44;5115764;28;20038;-80
2022/12/17 16:21:48;;;;;;;48.05;19.80;;;;;;;-3.41;100.00;102520.47;5115345;28;20074;-79
2022/12/17 16:27:35;;;;;;;99.47;37.17;;;;;;;-3.61;100.00;102519.72;5115453;28;20088;-77
2022/12/17 16:33:43;;;;;;;67.82;23.30;;;;;;;-3.69;100.00;102518.47;5112716;28;20062;-75
2022/12/17 16:39:30;;;;;;;83.30;27.17;;;;;;;-3.85;100.00;102511.41;5114936;28;20062;-77
2022/12/17 16:45:17;;;;;;;78.28;26.52;;;;;;;-3.92;100.00;102517.03;5117640;28;20112;-75
2022/12/17 16:51:25;;;;;;;85.80;28.88;;;;;;;-3.89;100.00;102522.94;5114200;28;20049;-75
2022/12/17 16:57:12;;;;;;;80.68;26.48;;;;;;;-3.70;100.00;102527.22;5114453;28;20527;-76
2022/12/17 17:02:59;;;;;;;59.75;21.50;;;;;;;-3.62;100.00;102527.66;5114842;28;20093;-77
2022/12/17 17:08:46;;;;;;;61.10;22.33;;;;;;;-3.59;100.00;102527.50;5114342;28;20058;-76
2022/12/17 17:14:34;;;;;;;54.90;18.10;;;;;;;-3.58;100.00;102529.19;5114315;28;20042;-78
2022/12/17 17:17:00;;;;;;;79.82;27.60;;;;;;;-3.73;100.00;102514.31;5116975;28;20480;-73
2022/12/17 17:22:48;;;;;;;80.50;29.38;;;;;;;-3.69;100.00;102537.59;5112382;28;20556;-75
2022/12/17 17:25:14;;;;;;;81.00;28.27;;;;;;;-3.79;100.00;102539.81;5113938;28;20032;-75
2022/12/17 17:31:05;;;;;;;73.57;26.95;;;;;;;-3.83;100.00;102540.06;5114078;28;20641;-77
2022/12/17 17:40:32;;;;;;;66.68;23.13;;;;;;;-3.87;100.00;102551.59;5113866;28;20042;-71
2022/12/17 17:42:58;;;;;;;59.58;22.48;;;;;;;-3.90;100.00;102556.97;5113320;28;20032;-73
2022/12/17 17:45:23;;;;;;;101.65;35.63;;;;;;;-4.10;100.00;102550.16;5113387;28;20539;-74
2022/12/17 17:51:18;;;;;;;88.80;29.42;;;;;;;-4.29;100.00;102545.00;5113613;28;20104;-74
2022/12/17 17:57:05;;;;;;;87.63;28.83;;;;;;;-4.20;100.00;102543.69;5113456;28;20070;-72
2022/12/17 17:59:31;;;;;;;73.43;25.95;;;;;;;-4.11;100.00;102545.84;5116220;28;20075;-72
2022/12/17 18:05:18;;;;;;;76.82;24.33;;;;;;;-4.01;100.00;102547.09;5113197;28;20096;-72
2022/12/17 18:11:08;;;;;;;80.95;27.27;;;;;;;-4.00;100.00;102545.31;5113538;28;20092;-74
2022/12/17 18:16:55;;;;;;;88.63;30.30;;;;;;;-4.07;100.00;102547.38;5111469;28;20086;-74
2022/12/17 18:22:44;;;;;;;80.10;24.50;;;;;;;-4.05;100.00;102561.19;5113228;28;20403;-75
2022/12/17 18:28:31;;;;;;;62.33;23.70;;;;;;;-3.99;100.00;102557.47;5111281;28;20095;-74
2022/12/17 18:34:21;;;;;;;76.28;25.88;;;;;;;-4.02;100.00;102563.69;5113319;28;20038;-74
2022/12/17 18:43:33;;;;;;;67.18;24.48;;;;;;;-4.22;100.00;102545.53;5112809;28;20042;-77
2022/12/17 18:49:21;;;;;;;50.25;19.30;;;;;;;-4.18;100.00;102550.53;5119311;28;20043;-79
2022/12/17 18:51:49;;;;;;;95.50;27.42;;;;;;;-4.28;100.00;102544.09;5116854;28;20044;-75
2022/12/17 18:57:36;;;;;;;78.20;26.25;;;;;;;-4.45;100.00;102544.06;5107752;28;20050;-76
2022/12/17 19:03:23;;;;;;;68.90;24.02;;;;;;;-4.40;100.00;102561.19;5107284;28;20042;-72
2022/12/17 19:05:48;;;;;;;53.58;19.17;;;;;;;-4.39;100.00;102554.19;5094006;28;20464;-73
2022/12/17 19:08:13;;;;;;;58.22;22.98;;;;;;;-4.45;100.00;102565.78;5112291;28;20028;-74
2022/12/17 19:10:39;;;;;;;53.30;21.08;;;;;;;-4.50;100.00;102567.78;5093316;28;20099;-72
2022/12/17 19:16:28;;;;;;;70.78;24.25;;;;;;;-4.60;100.00;102565.69;5112507;28;20130;-72
2022/12/17 19:22:15;;;;;;;71.43;23.50;;;;;;;-4.64;100.00;102580.63;5110534;28;20260;-72
2022/12/17 19:28:02;;;;;;;57.80;18.13;;;;;;;-4.51;100.00;102579.16;5112345;28;20494;-72
2022/12/17 19:33:53;;;;;;;68.78;24.35;;;;;;;-4.43;100.00;102583.97;5112213;28;20050;-73
2022/12/17 19:39:40;;;;;;;65.30;20.52;;;;;;;-4.53;100.00;102595.78;5112301;28;20105;-74
2022/12/17 19:45:27;;;;;;;108.07;32.40;;;;;;;-4.64;100.00;102583.25;5115312;27;20376;-74
2022/12/17 19:51:15;;;;;;;92.18;30.75;;;;;;;-4.70;100.00;102584.38;5111911;28;20039;-72
2022/12/17 19:57:02;;;;;;;60.45;21.50;;;;;;;-4.68;100.00;102582.53;5115488;28;20101;-73
2022/12/17 20:02:49;;;;;;;64.60;21.38;;;;;;;-4.64;100.00;102598.06;5113199;28;20391;-73
2022/12/17 20:08:36;;;;;;;66.28;21.45;;;;;;;-4.61;100.00;102605.75;5115357;28;20060;-72
2022/12/17 20:14:27;;;;;;;53.40;21.27;;;;;;;-4.64;100.00;102618.94;5118132;28;20061;-73
2022/12/17 20:20:14;;;;;;;57.75;21.80;;;;;;;-4.80;100.00;102608.38;5115030;28;20475;-76
2022/12/17 20:26:06;;;;;;;54.58;18.45;;;;;;;-4.72;100.00;102625.34;5118524;27;20502;-73
2022/12/17 20:31:53;;;;;;;54.70;21.00;;;;;;;-4.76;100.00;102629.03;5112841;28;20047;-75
2022/12/17 20:37:40;;;;;;;76.28;22.02;;;;;;;-4.90;100.00;102615.78;5115334;28;20518;-73
2022/12/17 20:40:07;;;;;;;36.75;15.55;;;;;;;-4.89;100.00;102614.03;5115206;28;20023;-74
2022/12/17 20:45:56;;;;;;;52.25;20.75;;;;;;;-4.92;100.00;102601.94;5115088;28;20046;-72
2022/12/17 20:51:43;;;;;;;55.95;21.33;;;;;;;-4.96;100.00;102607.38;5114494;28;20039;-72
2022/12/17 20:57:30;;;;;;;50.97;18.42;;;;;;;-5.03;100.00;102599.00;5114910;28;20507;-71
2022/12/17 21:03:17;;;;;;;58.75;22.35;;;;;;;-4.94;100.00;102601.16;5112886;28;20088;-70
2022/12/17 21:09:05;;;;;;;67.55;24.75;;;;;;;-4.94;100.00;102609.00;5114498;28;20042;-71
2022/12/17 21:14:52;;;;;;;52.90;22.17;;;;;;;-4.96;100.00;102603.00;5112511;28;20534;-72
2022/12/17 21:17:18;;;;;;;48.90;20.67;;;;;;;-4.91;100.00;102598.44;5095905;28;20036;-72
2022/12/17 21:19:43;;;;;;;51.60;20.77;;;;;;;-4.89;100.00;102606.19;5116905;27;20399;-72
2022/12/17 21:25:29;;;;;;;47.95;18.67;;;;;;;-5.02;100.00;102611.97;5114286;28;20082;-72
2022/12/17 21:27:55;;;;;;;50.97;21.35;;;;;;;-5.03;100.00;102612.03;5113544;28;20048;-74
2022/12/17 21:33:42;;;;;;;34.50;15.20;;;;;;;-5.01;100.00;102620.63;5114420;28;20392;-74
2022/12/17 21:39:30;;;;;;;48.63;20.27;;;;;;;-5.04;100.00;102615.56;5112251;28;20081;-74
2022/12/17 21:45:16;;;;;;;38.53;16.67;;;;;;;-5.15;100.00;102613.44;5114368;28;20087;-73
2022/12/17 21:51:05;;;;;;;43.72;19.15;;;;;;;-5.11;100.00;102621.97;5111739;28;20436;-73
2022/12/17 21:56:51;;;;;;;41.03;16.90;;;;;;;-5.08;100.00;102625.28;5113842;28;20156;-73
2022/12/17 22:02:39;;;;;;;55.55;24.38;;;;;;;-5.14;100.00;102632.53;5113974;28;20538;-74
2022/12/17 22:05:04;;;;;;;53.08;22.17;;;;;;;-5.17;100.00;102633.53;5113294;28;20032;-72
2022/12/17 22:07:29;;;;;;;38.40;16.48;;;;;;;-5.17;100.00;102643.97;5116626;27;20441;-76
2022/12/17 22:19:22;;;;;;;51.38;21.05;;;;;;;-5.23;100.00;102659.00;5113375;28;20081;-72
2022/12/17 22:25:10;;;;;;;52.08;21.60;;;;;;;-5.32;100.00;102655.03;5115885;28;20050;-75
2022/12/17 22:37:09;;;;;;;43.90;17.90;;;;;;;-5.43;100.00;102645.09;5113216;28;20070;-73
2022/12/17 22:49:01;;;;;;;50.35;23.48;;;;;;;-5.59;100.00;102640.59;5112076;28;20104;-75
2022/12/17 22:51:26;;;;;;;53.72;22.50;;;;;;;-5.65;100.00;102639.09;5093532;28;20016;-73
2022/12/17 22:53:52;;;;;;;48.15;24.65;;;;;;;-5.72;100.00;102635.06;5094230;28;20080;-74
2022/12/17 22:59:39;;;;;;;47.67;20.23;;;;;;;-5.90;100.00;102646.28;5112760;28;20178;-74
2022/12/17 23:02:04;;;;;;;51.50;23.05;;;;;;;-5.97;100.00;102656.09;5115520;27;20122;-73
2022/12/17 23:07:51;;;;;;;46.08;20.50;;;;;;;-6.10;100.00;102649.69;5112935;28;20085;-72
2022/12/17 23:13:38;;;;;;;46.92;20.40;;;;;;;-6.20;100.00;102637.94;5112559;28;20042;-74
2022/12/17 23:19:25;;;;;;;43.97;19.20;;;;;;;-6.38;100.00;102616.94;5112439;28;20082;-73
2022/12/17 23:25:13;;;;;;;51.67;20.80;;;;;;;-6.38;100.00;102621.31;5110421;28;20051;-74
2022/12/17 23:31:14;;;;;;;53.55;21.02;;;;;;;-6.42;100.00;102622.34;5116019;28;20043;-76
2022/12/17 23:37:01;;;;;;;47.20;20.55;;;;;;;-6.50;100.00;102619.19;5119131;27;20046;-75
2022/12/17 23:39:26;;;;;;;44.33;19.95;;;;;;;-6.50;100.00;102629.59;5097341;28;20023;-76
2022/12/17 23:41:55;;;;;;;53.08;21.67;;;;;;;-6.50;100.00;102632.22;5097449;28;20030;-74
2022/12/17 23:47:42;;;;;;;47.40;18.63;;;;;;;-6.52;100.00;102628.81;5113873;28;20093;-73
2022/12/17 23:53:30;;;;;;;40.17;18.15;;;;;;;-6.57;100.00;102636.81;5115850;28;20177;-72
2022/12/17 23:59:17;;;;;;;42.35;19.35;;;;;;;-6.71;100.00;102642.53;5115874;28;20494;-72
